METAR Data
IDs: Format: Raw Decoded Include TAF

Data at: 0821 UTC 20 Sep 2018

PACD 200753Z AUTO 27012KT 10SM SCT012 BKN021 OVC027 09/08 A3042 RMK AO2 SLP302 T00940078 TSNO
PACD 200749Z AUTO 28009KT 10SM BKN011 BKN021 OVC027 09/08 A3042 RMK AO2 TSNO
PACD 200653Z AUTO 26007KT 10SM BKN016 OVC024 09/08 A3042 RMK AO2 SLP301 T00890078 TSNO
PACD 200553Z AUTO 25006KT 10SM BKN021 OVC026 09/07 A3041 RMK AO2 SLP299 T00890067 10111 20089 56003 TSNO
PACD 200453Z AUTO 27010KT 10SM OVC022 09/07 A3041 RMK AO2 SLP299 T00890067 TSNO
PACD 200422Z AUTO 28008KT 10SM OVC028 09/07 A3042 RMK AO2 T00940067 TSNO
PACD 200353Z AUTO 28011KT 10SM BKN031 09/07 A3042 RMK AO2 SLP300 T00940067 TSNO
PACD 200312Z AUTO 28012KT 10SM FEW017 FEW028 09/06 A3042 RMK AO2 T00940061 TSNO
PACD 200253Z AUTO 29011KT 10SM FEW018 BKN028 10/06 A3042 RMK AO2 SLP302 T01000061 58004 TSNO
PACD 200246Z AUTO 28015KT 10SM FEW019 OVC028 10/06 A3042 RMK AO2 T01000061 TSNO
PACD 200210Z AUTO 29011KT 10SM SCT027 OVC032 10/04 A3043 RMK AO2 T01000044 TSNO
PACD 200153Z AUTO 29012KT 10SM FEW020 BKN027 OVC033 10/06 A3043 RMK AO2 SLP304 T01000061 TSNO
PACD 200053Z 29012KT 10SM BKN022 OVC032 11/06 A3043 RMK AO2 SLP306 T01060061
PACD 192353Z 30012KT 10SM OVC020 10/07 A3043 RMK AO2 SLP306 T01000067 10111 20094 56002
PACD 192253Z 31012KT 10SM BKN019 OVC025 11/07 A3044 RMK AO2 SLP307 T01060067
PACD 192153Z 30011KT 10SM FEW015 OVC023 10/07 A3044 RMK AO2 SLP307 T01000072
PACD 192053Z 30009KT 10SM OVC026 11/06 A3044 RMK AO2 SLP308 T01060056 56002
PACD 191953Z 30008KT 10SM OVC024 11/07 A3045 RMK AO2 SLP312 T01060067
PACD 191853Z 32007KT 10SM OVC027 11/07 A3043 RMK AO2 SLP306 T01060067
PACD 191753Z 33006KT 10SM OVC024 09/07 A3045 RMK AO2 SLP310 60000 T00940067 10100 20044 50005
PACD 191653Z 33007KT 10SM OVC026 09/07 A3045 RMK AO2 SLP311 T00890067
PACD 191622Z 32007KT 10SM OVC029 09/07 A3045 RMK AO2 T00890067
PACD 191553Z AUTO 32008KT 10SM OVC032 09/07 A3044 RMK AO2 SLP307 T00890072 TSNO
PACD 191453Z AUTO 31007KT 10SM OVC030 08/08 A3043 RMK AO2 RAB01E14 SLP305 P0000 60000 T00830078 58001 TSNO
PACD 191436Z AUTO 30008KT 10SM OVC030 08/08 A3043 RMK AO2 RAB01E14 P0000 T00830078 TSNO
PACD 191428Z AUTO 29007KT 10SM FEW014 OVC028 08/08 A3043 RMK AO2 RAB01E14 P0000 T00780078 TSNO
PACD 191418Z AUTO 30005KT 10SM FEW014 SCT026 OVC030 08/07 A3043 RMK AO2 RAB01E14 P0000 T00780072 TSNO
PACD 191401Z AUTO 30003KT 10SM -RA SCT015 BKN025 OVC034 07/07 A3043 RMK AO2 RAB01 P0000 T00670067 TSNO
PACD 191353Z AUTO 28006KT 10SM SCT015 SCT025 OVC034 07/06 A3043 RMK AO2 SLP306 T00670061 TSNO
PACD 191351Z AUTO 28006KT 10SM SCT015 SCT021 BKN034 06/06 A3043 RMK AO2 TSNO
PACD 191338Z AUTO 30005KT 10SM SCT014 BKN020 BKN025 06/06 A3043 RMK AO2 T00560056 TSNO
PACD 191253Z AUTO 30004KT 10SM CLR 06/06 A3043 RMK AO2 SLP305 T00560056 TSNO
PACD 191153Z AUTO 29004KT 10SM CLR 05/05 A3043 RMK AO2 SLP305 T00500050 10089 20050 53003 TSNO
PACD 191053Z AUTO 31004KT 10SM CLR 05/05 A3042 RMK AO2 SLP302 T00500050 TSNO
PACD 190953Z AUTO 31003KT 10SM CLR 06/05 A3042 RMK AO2 SLP303 T00560050 TSNO
PACD 190853Z AUTO 34004KT 10SM CLR 07/06 A3042 RMK AO2 SLP301 T00670061 401330067 50001 TSNO
PACD 190800Z AUTO 33005KT 10SM FEW018 07/07 A3042 RMK AO2 T00720067 TSNO
PACD 190753Z AUTO 32006KT 10SM SCT018 BKN025 08/07 A3042 RMK AO2 SLP301 T00780067 TSNO
PACD 190653Z AUTO 33008KT 10SM FEW020 08/07 A3042 RMK AO2 SLP302 T00830072 TSNO
PACD 190553Z AUTO 33008KT 10SM FEW020 08/07 A3042 RMK AO2 SLP300 T00780067 10133 20078 53011 TSNO
PACD 190453Z AUTO 33010KT 10SM FEW018 09/07 A3040 RMK AO2 SLP293 T00940072 TSNO
PACD 190417Z AUTO 34012KT 10SM SCT019 10/07 A3039 RMK AO2 T01000072 TSNO
PACD 190353Z AUTO 33012KT 10SM BKN018 11/08 A3038 RMK AO2 SLP289 T01060078 TSNO
PACD 190253Z AUTO 34013KT 10SM BKN018 BKN027 13/08 A3038 RMK AO2 SLP289 T01280083 56001 TSNO
PACD 190227Z AUTO 31015KT 10SM BKN018 BKN022 BKN045 12/09 A3039 RMK AO2 T01220089 TSNO
PACD 190153Z AUTO 32018G22KT 10SM FEW018 13/08 A3038 RMK AO2 SLP289 T01280083 TSNO
PACD 190145Z AUTO 32017KT 10SM FEW018 SCT024 13/08 A3039 RMK AO2 T01280078 TSNO
PACD 190108Z AUTO 32017G22KT 10SM SCT021 BKN026 13/08 A3039 RMK AO2 T01280078 TSNO
PACD 190053Z AUTO 33015G21KT 10SM SCT021 SCT026 13/07 A3039 RMK AO2 SLP290 T01280072 TSNO
PACD 182353Z 34016KT 10SM SCT022 BKN026 OVC050 12/07 A3039 RMK AO2 SLP290 T01170067 10133 20100 51005
PACD 182311Z 32014G20KT 10SM FEW021 BKN027 BKN036 13/07 A3039 RMK AO2 T01280067
PACD 182253Z 32014KT 10SM FEW021 SCT029 BKN036 12/07 A3039 RMK AO2 SLP290 T01170067
PACD 182153Z 32012KT 10SM FEW034 BKN042 13/06 A3038 RMK AO2 SLP288 T01280061
PACD 182124Z 34011KT 10SM FEW019 BKN035 OVC042 12/07 A3038 RMK AO2 T01220067
PACD 182053Z 30008KT 10SM BKN023 OVC031 11/08 A3037 RMK AO2 SLP285 T01110078 50000